sensor_id;sensor_type;location;lat;lon;timestamp;pressure;altitude;pressure_sealevel;temperature;humidity
54808;BME280;40708;50.364;7.550;2023-08-17T00:01:18;102467.13;;;18.12;100.00
54808;BME280;40708;50.364;7.550;2023-08-17T00:03:44;102481.47;;;18.10;100.00
54808;BME280;40708;50.364;7.550;2023-08-17T00:06:09;102486.81;;;18.07;100.00
54808;BME280;40708;50.364;7.550;2023-08-17T00:08:34;102494.88;;;18.10;100.00
54808;BME280;40708;50.364;7.550;2023-08-17T00:10:59;102506.53;;;18.12;100.00
54808;BME280;40708;50.364;7.550;2023-08-17T00:13:25;102522.66;;;18.19;100.00
54808;BME280;40708;50.364;7.550;2023-08-17T00:15:50;102525.38;;;18.28;100.00
54808;BME280;40708;50.364;7.550;2023-08-17T00:18:15;102531.63;;;18.30;100.00
54808;BME280;40708;50.364;7.550;2023-08-17T00:20:41;102524.44;;;18.29;100.00
54808;BME280;40708;50.364;7.550;2023-08-17T00:23:06;102528.06;;;18.31;100.00
54808;BME280;40708;50.364;7.550;2023-08-17T00:25:31;102533.44;;;18.33;100.00
54808;BME280;40708;50.364;7.550;2023-08-17T00:27:57;102540.59;;;18.40;100.00
54808;BME280;40708;50.364;7.550;2023-08-17T00:30:22;102551.41;;;18.48;100.00
54808;BME280;40708;50.364;7.550;2023-08-17T00:32:47;102557.69;;;18.53;100.00
54808;BME280;40708;50.364;7.550;2023-08-17T00:35:13;102563.94;;;18.59;100.00
54808;BME280;40708;50.364;7.550;2023-08-17T00:37:38;102562.16;;;18.60;100.00
54808;BME280;40708;50.364;7.550;2023-08-17T00:40:04;102566.66;;;18.65;100.00
54808;BME280;40708;50.364;7.550;2023-08-17T00:42:29;102563.09;;;18.69;100.00
54808;BME280;40708;50.364;7.550;2023-08-17T00:44:55;102549.66;;;18.72;100.00
54808;BME280;40708;50.364;7.550;2023-08-17T00:47:20;102560.38;;;18.77;100.00
54808;BME280;40708;50.364;7.550;2023-08-17T00:49:46;102562.16;;;18.81;100.00
54808;BME280;40708;50.364;7.550;2023-08-17T00:52:11;102561.25;;;18.83;100.00
54808;BME280;40708;50.364;7.550;2023-08-17T00:54:37;102561.28;;;18.88;100.00
54808;BME280;40708;50.364;7.550;2023-08-17T00:57:02;102553.22;;;18.88;100.00
54808;BME280;40708;50.364;7.550;2023-08-17T00:59:31;102555.88;;;18.89;100.00
54808;BME280;40708;50.364;7.550;2023-08-17T01:01:57;102547.84;;;18.91;100.00
54808;BME280;40708;50.364;7.550;2023-08-17T01:04:22;102544.25;;;18.93;100.00
54808;BME280;40708;50.364;7.550;2023-08-17T01:06:47;102547.81;;;18.98;100.00
54808;BME280;40708;50.364;7.550;2023-08-17T01:09:13;102546.03;;;19.03;100.00
54808;BME280;40708;50.364;7.550;2023-08-17T01:15:21;102544.22;;;19.12;100.00
54808;BME280;40708;50.364;7.550;2023-08-17T01:20:52;102522.69;;;19.18;100.00
54808;BME280;40708;50.364;7.550;2023-08-17T01:23:18;102522.66;;;19.22;100.00
54808;BME280;40708;50.364;7.550;2023-08-17T01:25:43;102505.63;;;19.22;100.00
54808;BME280;40708;50.364;7.550;2023-08-17T01:28:08;102495.78;;;19.21;100.00
54808;BME280;40708;50.364;7.550;2023-08-17T01:33:04;102469.75;;;19.21;100.00
54808;BME280;40708;50.364;7.550;2023-08-17T01:35:38;102453.59;;;19.23;100.00
54808;BME280;40708;50.364;7.550;2023-08-17T01:38:07;102439.25;;;19.19;100.00
54808;BME280;40708;50.364;7.550;2023-08-17T01:40:35;102424.00;;;19.20;100.00
54808;BME280;40708;50.364;7.550;2023-08-17T01:43:04;102412.34;;;19.16;100.00
54808;BME280;40708;50.364;7.550;2023-08-17T01:45:30;102402.50;;;19.15;100.00
54808;BME280;40708;50.364;7.550;2023-08-17T01:47:56;102395.31;;;19.17;100.00
54808;BME280;40708;50.364;7.550;2023-08-17T01:50:21;102371.97;;;19.16;100.00
54808;BME280;40708;50.364;7.550;2023-08-17T01:52:46;102360.34;;;19.14;100.00
54808;BME280;40708;50.364;7.550;2023-08-17T01:55:12;102344.22;;;19.13;100.00
54808;BME280;40708;50.364;7.550;2023-08-17T01:57:37;102344.22;;;19.16;100.00
54808;BME280;40708;50.364;7.550;2023-08-17T02:00:04;102328.06;;;19.16;100.00
54808;BME280;40708;50.364;7.550;2023-08-17T02:02:30;102330.72;;;19.17;100.00
54808;BME280;40708;50.364;7.550;2023-08-17T02:04:56;102318.16;;;19.18;100.00
54808;BME280;40708;50.364;7.550;2023-08-17T02:07:21;102316.38;;;19.17;100.00
54808;BME280;40708;50.364;7.550;2023-08-17T02:09:46;102303.81;;;19.17;100.00
54808;BME280;40708;50.364;7.550;2023-08-17T02:12:12;102305.63;;;19.18;100.00
54808;BME280;40708;50.364;7.550;2023-08-17T02:14:37;102310.09;;;19.21;100.00
54808;BME280;40708;50.364;7.550;2023-08-17T02:17:02;102313.69;;;19.21;100.00
54808;BME280;40708;50.364;7.550;2023-08-17T02:19:28;102313.66;;;19.23;100.00
54808;BME280;40708;50.364;7.550;2023-08-17T02:21:53;102311.84;;;19.25;100.00
54808;BME280;40708;50.364;7.550;2023-08-17T02:24:18;102293.03;;;19.23;100.00
54808;BME280;40708;50.364;7.550;2023-08-17T02:26:44;102284.06;;;19.23;100.00
54808;BME280;40708;50.364;7.550;2023-08-17T02:29:09;102286.72;;;19.24;100.00
54808;BME280;40708;50.364;7.550;2023-08-17T02:31:34;102281.34;;;19.23;100.00
54808;BME280;40708;50.364;7.550;2023-08-17T02:33:59;102269.69;;;19.22;100.00
54808;BME280;40708;50.364;7.550;2023-08-17T02:36:30;102258.03;;;19.22;100.00
54808;BME280;40708;50.364;7.550;2023-08-17T02:38:55;102254.47;;;19.21;100.00
54808;BME280;40708;50.364;7.550;2023-08-17T02:41:21;102249.09;;;19.21;100.00
54808;BME280;40708;50.364;7.550;2023-08-17T02:43:46;102248.19;;;19.16;100.00
54808;BME280;40708;50.364;7.550;2023-08-17T02:46:11;102244.66;;;19.13;100.00
54808;BME280;40708;50.364;7.550;2023-08-17T02:48:37;102245.53;;;19.15;100.00
54808;BME280;40708;50.364;7.550;2023-08-17T02:51:02;102243.75;;;19.15;100.00
54808;BME280;40708;50.364;7.550;2023-08-17T02:53:27;102231.19;;;19.11;100.00
54808;BME280;40708;50.364;7.550;2023-08-17T02:55:52;102238.41;;;19.06;100.00
54808;BME280;40708;50.364;7.550;2023-08-17T02:58:18;102231.25;;;19.03;100.00
54808;BME280;40708;50.364;7.550;2023-08-17T03:00:44;102231.25;;;19.05;100.00
54808;BME280;40708;50.364;7.550;2023-08-17T03:03:09;102244.69;;;19.07;100.00
54808;BME280;40708;50.364;7.550;2023-08-17T03:05:34;102239.34;;;19.02;100.00
54808;BME280;40708;50.364;7.550;2023-08-17T03:08:00;102242.94;;;18.99;100.00
54808;BME280;40708;50.364;7.550;2023-08-17T03:10:25;102249.16;;;19.06;100.00
54808;BME280;40708;50.364;7.550;2023-08-17T03:12:50;102244.69;;;19.07;100.00
54808;BME280;40708;50.364;7.550;2023-08-17T03:15:16;102241.13;;;19.05;100.00
54808;BME280;40708;50.364;7.550;2023-08-17T03:17:41;102236.66;;;19.00;100.00
54808;BME280;40708;50.364;7.550;2023-08-17T03:20:07;102226.81;;;18.95;100.00
54808;BME280;40708;50.364;7.550;2023-08-17T03:22:34;102228.59;;;18.99;100.00
54808;BME280;40708;50.364;7.550;2023-08-17T03:24:59;102223.22;;;19.02;100.00
54808;BME280;40708;50.364;7.550;2023-08-17T03:27:24;102229.47;;;19.01;100.00
54808;BME280;40708;50.364;7.550;2023-08-17T03:29:50;102216.91;;;19.00;100.00
54808;BME280;40708;50.364;7.550;2023-08-17T03:32:16;102201.69;;;19.00;100.00
54808;BME280;40708;50.364;7.550;2023-08-17T03:34:41;102207.97;;;19.01;100.00
54808;BME280;40708;50.364;7.550;2023-08-17T03:37:06;102211.56;;;18.97;100.00
54808;BME280;40708;50.364;7.550;2023-08-17T03:39:32;102200.78;;;18.97;100.00
54808;BME280;40708;50.364;7.550;2023-08-17T03:41:57;102201.69;;;18.94;100.00
54808;BME280;40708;50.364;7.550;2023-08-17T03:44:22;102201.72;;;18.96;100.00
54808;BME280;40708;50.364;7.550;2023-08-17T03:46:48;102199.94;;;18.96;100.00
54808;BME280;40708;50.364;7.550;2023-08-17T03:49:13;102213.34;;;19.01;100.00
54808;BME280;40708;50.364;7.550;2023-08-17T03:51:39;102207.06;;;19.00;100.00
54808;BME280;40708;50.364;7.550;2023-08-17T03:54:04;102202.56;;;19.01;100.00
54808;BME280;40708;50.364;7.550;2023-08-17T03:56:30;102202.59;;;18.99;100.00
54808;BME280;40708;50.364;7.550;2023-08-17T03:58:55;102206.19;;;18.98;100.00
54808;BME280;40708;50.364;7.550;2023-08-17T04:01:20;102208.84;;;19.01;100.00
54808;BME280;40708;50.364;7.550;2023-08-17T04:03:46;102210.66;;;18.99;100.00
54808;BME280;40708;50.364;7.550;2023-08-17T04:06:11;102216.06;;;18.99;100.00
54808;BME280;40708;50.364;7.550;2023-08-17T04:08:37;102214.25;;;18.97;100.00
54808;BME280;40708;50.364;7.550;2023-08-17T04:11:03;102215.16;;;18.99;100.00
54808;BME280;40708;50.364;7.550;2023-08-17T04:13:28;102215.16;;;18.99;100.00
54808;BME280;40708;50.364;7.550;2023-08-17T04:15:54;102211.56;;;18.98;100.00
54808;BME280;40708;50.364;7.550;2023-08-17T04:18:19;102224.09;;;18.98;100.00
54808;BME280;40708;50.364;7.550;2023-08-17T04:20:44;102221.44;;;18.99;100.00
54808;BME280;40708;50.364;7.550;2023-08-17T04:23:10;102211.56;;;18.98;100.00
54808;BME280;40708;50.364;7.550;2023-08-17T04:25:35;102218.72;;;18.98;100.00
54808;BME280;40708;50.364;7.550;2023-08-17T04:28:01;102213.34;;;18.99;100.00
54808;BME280;40708;50.364;7.550;2023-08-17T04:30:26;102213.34;;;18.98;100.00
54808;BME280;40708;50.364;7.550;2023-08-17T04:32:51;102212.44;;;19.00;100.00
54808;BME280;40708;50.364;7.550;2023-08-17T04:35:18;102211.56;;;18.95;100.00
54808;BME280;40708;50.364;7.550;2023-08-17T04:37:44;102210.66;;;18.99;100.00
54808;BME280;40708;50.364;7.550;2023-08-17T04:40:09;102211.53;;;19.00;100.00
54808;BME280;40708;50.364;7.550;2023-08-17T04:42:35;102228.59;;;19.02;100.00
54808;BME280;40708;50.364;7.550;2023-08-17T04:45:01;102209.78;;;18.99;100.00
54808;BME280;40708;50.364;7.550;2023-08-17T04:47:26;102202.56;;;19.01;100.00
54808;BME280;40708;50.364;7.550;2023-08-17T04:49:51;102205.25;;;19.04;100.00
54808;BME280;40708;50.364;7.550;2023-08-17T04:52:17;102201.66;;;19.07;100.00
54808;BME280;40708;50.364;7.550;2023-08-17T04:54:42;102200.72;;;19.09;100.00
54808;BME280;40708;50.364;7.550;2023-08-17T04:57:07;102211.50;;;19.09;100.00
54808;BME280;40708;50.364;7.550;2023-08-17T04:59:33;102207.00;;;19.13;100.00
54808;BME280;40708;50.364;7.550;2023-08-17T05:01:58;102219.50;;;19.18;100.00
54808;BME280;40708;50.364;7.550;2023-08-17T05:04:23;102220.38;;;19.23;100.00
54808;BME280;40708;50.364;7.550;2023-08-17T05:06:48;102219.47;;;19.23;100.00
54808;BME280;40708;50.364;7.550;2023-08-17T05:09:14;102214.97;;;19.26;100.00
54808;BME280;40708;50.364;7.550;2023-08-17T05:11:39;102217.63;;;19.28;100.00
54808;BME280;40708;50.364;7.550;2023-08-17T05:14:04;102219.38;;;19.33;100.00
54808;BME280;40708;50.364;7.550;2023-08-17T05:16:30;102216.72;;;19.32;100.00
54808;BME280;40708;50.364;7.550;2023-08-17T05:18:55;102225.63;;;19.41;100.00
54808;BME280;40708;50.364;7.550;2023-08-17T05:21:22;102224.69;;;19.47;100.00
54808;BME280;40708;50.364;7.550;2023-08-17T05:23:48;102230.09;;;19.47;100.00
54808;BME280;40708;50.364;7.550;2023-08-17T05:26:13;102234.53;;;19.49;100.00
54808;BME280;40708;50.364;7.550;2023-08-17T05:28:38;102243.50;;;19.51;100.00
54808;BME280;40708;50.364;7.550;2023-08-17T05:31:05;102238.09;;;19.51;100.00
54808;BME280;40708;50.364;7.550;2023-08-17T05:33:31;102236.31;;;19.56;100.00
54808;BME280;40708;50.364;7.550;2023-08-17T05:35:56;102242.53;;;19.60;100.00
54808;BME280;40708;50.364;7.550;2023-08-17T05:38:21;102253.25;;;19.66;100.00
54808;BME280;40708;50.364;7.550;2023-08-17T05:40:47;102230.84;;;19.64;100.00
54808;BME280;40708;50.364;7.550;2023-08-17T05:43:12;102220.13;;;19.58;100.00
54808;BME280;40708;50.364;7.550;2023-08-17T05:45:38;102213.75;;;19.65;100.00
54808;BME280;40708;50.364;7.550;2023-08-17T05:48:03;102207.44;;;19.72;100.00
54808;BME280;40708;50.364;7.550;2023-08-17T05:50:29;102209.25;;;19.70;100.00
54808;BME280;40708;50.364;7.550;2023-08-17T05:52:55;102206.59;;;19.64;100.00
54808;BME280;40708;50.364;7.550;2023-08-17T05:55:21;102191.31;;;19.69;100.00
54808;BME280;40708;50.364;7.550;2023-08-17T05:57:46;102194.81;;;19.77;100.00
54808;BME280;40708;50.364;7.550;2023-08-17T06:00:12;102186.81;;;19.68;100.00
54808;BME280;40708;50.364;7.550;2023-08-17T06:02:38;102175.13;;;19.72;100.00
54808;BME280;40708;50.364;7.550;2023-08-17T06:05:04;102167.00;;;19.75;100.00
54808;BME280;40708;50.364;7.550;2023-08-17T06:07:29;102158.88;;;19.80;100.00
54808;BME280;40708;50.364;7.550;2023-08-17T06:09:55;102154.31;;;19.86;100.00
54808;BME280;40708;50.364;7.550;2023-08-17T06:12:20;102157.81;;;19.94;100.00
54808;BME280;40708;50.364;7.550;2023-08-17T06:14:45;102149.66;;;20.02;100.00
54808;BME280;40708;50.364;7.550;2023-08-17T06:17:11;102146.91;;;20.08;100.00
54808;BME280;40708;50.364;7.550;2023-08-17T06:19:36;102146.81;;;20.12;100.00
54808;BME280;40708;50.364;7.550;2023-08-17T06:22:01;102118.25;;;19.98;100.00
54808;BME280;40708;50.364;7.550;2023-08-17T06:24:27;102109.16;;;20.06;100.00
54808;BME280;40708;50.364;7.550;2023-08-17T06:26:52;102108.09;;;20.21;100.00
54808;BME280;40708;50.364;7.550;2023-08-17T06:29:17;102106.28;;;20.25;100.00
54808;BME280;40708;50.364;7.550;2023-08-17T06:31:43;102097.19;;;20.30;100.00
54808;BME280;40708;50.364;7.550;2023-08-17T06:34:08;102075.63;;;20.30;100.00
54808;BME280;40708;50.364;7.550;2023-08-17T06:36:37;102054.16;;;20.27;100.00
54808;BME280;40708;50.364;7.550;2023-08-17T06:39:03;102041.41;;;20.38;100.00
54808;BME280;40708;50.364;7.550;2023-08-17T06:41:29;102016.09;;;20.48;100.00
54808;BME280;40708;50.364;7.550;2023-08-17T06:43:54;102006.03;;;20.58;100.00
54808;BME280;40708;50.364;7.550;2023-08-17T06:46:20;101972.72;;;20.62;100.00
54808;BME280;40708;50.364;7.550;2023-08-17T06:48:45;101919.69;;;20.62;100.00
54808;BME280;40708;50.364;7.550;2023-08-17T06:51:10;101890.88;;;20.63;100.00
54808;BME280;40708;50.364;7.550;2023-08-17T06:53:36;101853.38;;;20.51;100.00
54808;BME280;40708;50.364;7.550;2023-08-17T06:56:01;101830.69;;;20.61;100.00
54808;BME280;40708;50.364;7.550;2023-08-17T06:58:26;101792.88;;;20.65;100.00
54808;BME280;40708;50.364;7.550;2023-08-17T07:00:52;101735.06;;;20.77;100.00
54808;BME280;40708;50.364;7.550;2023-08-17T07:03:17;101750.13;;;20.89;100.00
54808;BME280;40708;50.364;7.550;2023-08-17T07:05:43;101643.50;;;20.72;100.00
54808;BME280;40708;50.364;7.550;2023-08-17T07:08:08;101567.06;;;20.73;100.00
54808;BME280;40708;50.364;7.550;2023-08-17T07:10:34;101567.53;;;20.91;100.00
54808;BME280;40708;50.364;7.550;2023-08-17T07:12:59;101512.94;;;20.81;100.00
54808;BME280;40708;50.364;7.550;2023-08-17T07:15:28;101451.94;;;20.74;100.00
54808;BME280;40708;50.364;7.550;2023-08-17T07:17:54;101434.78;;;20.78;100.00
54808;BME280;40708;50.364;7.550;2023-08-17T07:20:19;101455.78;;;21.01;100.00
54808;BME280;40708;50.364;7.550;2023-08-17T07:22:44;101421.81;;;20.92;100.00
54808;BME280;40708;50.364;7.550;2023-08-17T07:25:09;101394.78;;;20.95;100.00
54808;BME280;40708;50.364;7.550;2023-08-17T07:27:35;101394.38;;;21.10;100.00
54808;BME280;40708;50.364;7.550;2023-08-17T07:30:00;101375.97;;;21.24;100.00
54808;BME280;40708;50.364;7.550;2023-08-17T07:32:25;101373.78;;;21.39;100.00
54808;BME280;40708;50.364;7.550;2023-08-17T07:34:51;101350.78;;;21.55;100.00
54808;BME280;40708;50.364;7.550;2023-08-17T07:37:16;101320.00;;;21.60;100.00
54808;BME280;40708;50.364;7.550;2023-08-17T07:39:42;101279.44;;;21.62;100.00
54808;BME280;40708;50.364;7.550;2023-08-17T07:42:07;101274.59;;;21.73;100.00
54808;BME280;40708;50.364;7.550;2023-08-17T07:44:32;101271.28;;;21.92;100.00
54808;BME280;40708;50.364;7.550;2023-08-17T07:46:59;101252.16;;;21.99;100.00
54808;BME280;40708;50.364;7.550;2023-08-17T07:49:24;101228.19;;;22.14;100.00
54808;BME280;40708;50.364;7.550;2023-08-17T07:51:50;101200.28;;;22.38;100.00
54808;BME280;40708;50.364;7.550;2023-08-17T07:54:15;101174.34;;;22.58;100.00
54808;BME280;40708;50.364;7.550;2023-08-17T07:56:41;101136.69;;;22.76;100.00
54808;BME280;40708;50.364;7.550;2023-08-17T07:59:06;101086.66;;;22.86;100.00
54808;BME280;40708;50.364;7.550;2023-08-17T08:01:31;101055.16;;;23.07;100.00
54808;BME280;40708;50.364;7.550;2023-08-17T08:03:57;101029.69;;;23.13;100.00
54808;BME280;40708;50.364;7.550;2023-08-17T08:06:23;101007.25;;;23.09;100.00
54808;BME280;40708;50.364;7.550;2023-08-17T08:08:48;100981.41;;;23.22;100.00
54808;BME280;40708;50.364;7.550;2023-08-17T08:11:13;100990.19;;;23.49;100.00
54808;BME280;40708;50.364;7.550;2023-08-17T08:13:39;100964.81;;;23.72;100.00
54808;BME280;40708;50.364;7.550;2023-08-17T08:16:05;100931.19;;;23.76;100.00
54808;BME280;40708;50.364;7.550;2023-08-17T08:18:31;100907.50;;;23.99;100.00
54808;BME280;40708;50.364;7.550;2023-08-17T08:20:56;100881.22;;;24.20;100.00
54808;BME280;40708;50.364;7.550;2023-08-17T08:23:21;100877.66;;;24.72;100.00
54808;BME280;40708;50.364;7.550;2023-08-17T08:25:47;100861.66;;;25.02;100.00
54808;BME280;40708;50.364;7.550;2023-08-17T08:28:12;100841.03;;;25.32;100.00
54808;BME280;40708;50.364;7.550;2023-08-17T08:30:38;100811.69;;;25.39;100.00
54808;BME280;40708;50.364;7.550;2023-08-17T08:33:03;100781.00;;;25.21;100.00
54808;BME280;40708;50.364;7.550;2023-08-17T08:35:29;100775.31;;;25.41;100.00
54808;BME280;40708;50.364;7.550;2023-08-17T08:37:54;100752.41;;;25.47;100.00
54808;BME280;40708;50.364;7.550;2023-08-17T08:40:27;100752.34;;;25.80;100.00
54808;BME280;40708;50.364;7.550;2023-08-17T08:42:53;100749.72;;;25.63;100.00
54808;BME280;40708;50.364;7.550;2023-08-17T08:45:20;100730.44;;;25.67;100.00
54808;BME280;40708;50.364;7.550;2023-08-17T08:47:46;100735.31;;;25.12;100.00
54808;BME280;40708;50.364;7.550;2023-08-17T08:50:17;100738.06;;;25.28;100.00
54808;BME280;40708;50.364;7.550;2023-08-17T08:52:58;100728.31;;;25.08;100.00
54808;BME280;40708;50.364;7.550;2023-08-17T08:55:27;100746.53;;;24.72;100.00
54808;BME280;40708;50.364;7.550;2023-08-17T08:57:55;100748.56;;;24.85;100.00
54808;BME280;40708;50.364;7.550;2023-08-17T09:00:22;100751.66;;;24.78;100.00
54808;BME280;40708;50.364;7.550;2023-08-17T09:02:48;100739.34;;;24.71;100.00
54808;BME280;40708;50.364;7.550;2023-08-17T09:05:14;100744.41;;;24.44;100.00
54808;BME280;40708;50.364;7.550;2023-08-17T09:07:40;100752.06;;;24.53;100.00
54808;BME280;40708;50.364;7.550;2023-08-17T09:10:09;100733.78;;;24.74;100.00
54808;BME280;40708;50.364;7.550;2023-08-17T09:12:34;100723.22;;;24.68;100.00
54808;BME280;40708;50.364;7.550;2023-08-17T09:14:59;100716.81;;;25.03;100.00
54808;BME280;40708;50.364;7.550;2023-08-17T09:17:26;100698.09;;;25.78;100.00
54808;BME280;40708;50.364;7.550;2023-08-17T09:19:52;100668.03;;;26.41;100.00
54808;BME280;40708;50.364;7.550;2023-08-17T09:22:24;100661.25;;;26.48;100.00
54808;BME280;40708;50.364;7.550;2023-08-17T09:24:50;100638.50;;;26.49;100.00
54808;BME280;40708;50.364;7.550;2023-08-17T09:27:16;100642.63;;;25.96;100.00
54808;BME280;40708;50.364;7.550;2023-08-17T09:29:45;100640.63;;;26.30;100.00
54808;BME280;40708;50.364;7.550;2023-08-17T09:32:16;100647.69;;;26.02;100.00
54808;BME280;40708;50.364;7.550;2023-08-17T09:34:43;100653.03;;;25.43;100.00
54808;BME280;40708;50.364;7.550;2023-08-17T09:37:09;100667.22;;;25.64;100.00
54808;BME280;40708;50.364;7.550;2023-08-17T09:39:36;100664.25;;;25.53;100.00
54808;BME280;40708;50.364;7.550;2023-08-17T09:42:02;100664.88;;;25.73;100.00
54808;BME280;40708;50.364;7.550;2023-08-17T09:44:27;100671.16;;;25.89;100.00
54808;BME280;40708;50.364;7.550;2023-08-17T09:46:56;100676.94;;;25.52;100.00
54808;BME280;40708;50.364;7.550;2023-08-17T09:49:24;100675.91;;;25.70;100.00
54808;BME280;40708;50.364;7.550;2023-08-17T09:51:50;100666.69;;;25.73;100.00
54808;BME280;40708;50.364;7.550;2023-08-17T09:54:22;100671.03;;;25.44;100.00
54808;BME280;40708;50.364;7.550;2023-08-17T09:56:53;100672.28;;;25.38;100.00
54808;BME280;40708;50.364;7.550;2023-08-17T09:59:19;100673.06;;;25.25;100.00
54808;BME280;40708;50.364;7.550;2023-08-17T10:01:47;100681.47;;;25.05;100.00
54808;BME280;40708;50.364;7.550;2023-08-17T10:04:16;100670.28;;;25.42;100.00
54808;BME280;40708;50.364;7.550;2023-08-17T10:06:48;100669.81;;;25.34;100.00
54808;BME280;40708;50.364;7.550;2023-08-17T10:09:19;100664.13;;;25.38;100.00
54808;BME280;40708;50.364;7.550;2023-08-17T10:11:49;100662.03;;;25.28;100.00
54808;BME280;40708;50.364;7.550;2023-08-17T10:14:22;100658.69;;;25.38;100.00
54808;BME280;40708;50.364;7.550;2023-08-17T10:16:57;100664.06;;;25.40;100.00
54808;BME280;40708;50.364;7.550;2023-08-17T10:19:37;100656.09;;;25.53;100.00
54808;BME280;40708;50.364;7.550;2023-08-17T10:24:43;100652.78;;;25.93;100.00
54808;BME280;40708;50.364;7.550;2023-08-17T10:27:10;100667.91;;;25.36;100.00
54808;BME280;40708;50.364;7.550;2023-08-17T10:29:36;100662.00;;;25.90;100.00
54808;BME280;40708;50.364;7.550;2023-08-17T10:32:05;100680.56;;;25.68;100.00
54808;BME280;40708;50.364;7.550;2023-08-17T10:34:31;100681.13;;;25.89;100.00
54808;BME280;40708;50.364;7.550;2023-08-17T10:36:57;100678.94;;;25.80;100.00
54808;BME280;40708;50.364;7.550;2023-08-17T10:39:26;100675.84;;;25.08;100.00
54808;BME280;40708;50.364;7.550;2023-08-17T10:41:52;100674.50;;;25.63;100.00
54808;BME280;40708;50.364;7.550;2023-08-17T10:44:47;100654.19;;;26.00;100.00
54808;BME280;40708;50.364;7.550;2023-08-17T10:47:32;100659.59;;;25.70;100.00
54808;BME280;40708;50.364;7.550;2023-08-17T10:50:04;100659.16;;;26.08;100.00
54808;BME280;40708;50.364;7.550;2023-08-17T10:52:32;100657.00;;;26.14;100.00
54808;BME280;40708;50.364;7.550;2023-08-17T10:55:02;100645.28;;;26.12;100.00
54808;BME280;40708;50.364;7.550;2023-08-17T10:57:32;100653.25;;;25.85;100.00
54808;BME280;40708;50.364;7.550;2023-08-17T11:00:07;100644.88;;;26.20;100.00
54808;BME280;40708;50.364;7.550;2023-08-17T11:02:33;100629.56;;;26.61;100.00
54808;BME280;40708;50.364;7.550;2023-08-17T11:05:00;100623.53;;;27.41;100.00
54808;BME280;40708;50.364;7.550;2023-08-17T11:07:27;100612.53;;;27.42;100.00
54808;BME280;40708;50.364;7.550;2023-08-17T11:09:53;100606.84;;;26.76;100.00
54808;BME280;40708;50.364;7.550;2023-08-17T11:12:25;100612.13;;;26.79;100.00
54808;BME280;40708;50.364;7.550;2023-08-17T11:14:50;100617.44;;;26.67;100.00
54808;BME280;40708;50.364;7.550;2023-08-17T11:17:16;100616.13;;;26.88;100.00
54808;BME280;40708;50.364;7.550;2023-08-17T11:19:41;100616.09;;;26.74;100.00
54808;BME280;40708;50.364;7.550;2023-08-17T11:22:06;100612.97;;;26.51;100.00
54808;BME280;40708;50.364;7.550;2023-08-17T11:24:33;100615.00;;;26.76;100.00
54808;BME280;40708;50.364;7.550;2023-08-17T11:26:58;100611.63;;;27.01;100.00
54808;BME280;40708;50.364;7.550;2023-08-17T11:29:24;100617.59;;;26.35;100.00
54808;BME280;40708;50.364;7.550;2023-08-17T11:31:50;100629.69;;;26.16;100.00
54808;BME280;40708;50.364;7.550;2023-08-17T11:34:15;100639.19;;;26.09;100.00
54808;BME280;40708;50.364;7.550;2023-08-17T11:36:41;100626.56;;;26.51;100.00
54808;BME280;40708;50.364;7.550;2023-08-17T11:39:06;100624.25;;;26.59;100.00
54808;BME280;40708;50.364;7.550;2023-08-17T11:41:34;100623.84;;;27.08;100.00
54808;BME280;40708;50.364;7.550;2023-08-17T11:43:59;100624.88;;;27.48;100.00
54808;BME280;40708;50.364;7.550;2023-08-17T11:46:25;100625.28;;;27.68;100.00
54808;BME280;40708;50.364;7.550;2023-08-17T11:48:50;100626.63;;;27.35;100.00
54808;BME280;40708;50.364;7.550;2023-08-17T11:51:28;100620.09;;;27.37;100.00
54808;BME280;40708;50.364;7.550;2023-08-17T11:53:58;100614.13;;;27.59;100.00
54808;BME280;40708;50.364;7.550;2023-08-17T11:56:23;100619.84;;;27.68;100.00
54808;BME280;40708;50.364;7.550;2023-08-17T11:58:49;100619.97;;;27.12;100.00
54808;BME280;40708;50.364;7.550;2023-08-17T12:01:14;100621.06;;;26.95;100.00
54808;BME280;40708;50.364;7.550;2023-08-17T12:03:43;100620.69;;;27.01;100.00
54808;BME280;40708;50.364;7.550;2023-08-17T12:06:09;100618.09;;;27.27;100.00
54808;BME280;40708;50.364;7.550;2023-08-17T12:08:35;100611.34;;;27.46;100.00
54808;BME280;40708;50.364;7.550;2023-08-17T12:11:02;100604.19;;;27.85;100.00
54808;BME280;40708;50.364;7.550;2023-08-17T12:13:34;100611.56;;;27.70;100.00
54808;BME280;40708;50.364;7.550;2023-08-17T12:15:59;100600.59;;;27.84;100.00
54808;BME280;40708;50.364;7.550;2023-08-17T12:18:25;100602.19;;;28.13;100.00
54808;BME280;40708;50.364;7.550;2023-08-17T12:20:54;100600.50;;;27.98;100.00
54808;BME280;40708;50.364;7.550;2023-08-17T12:23:20;100601.34;;;28.38;100.00
54808;BME280;40708;50.364;7.550;2023-08-17T12:25:45;100602.81;;;28.69;100.00
54808;BME280;40708;50.364;7.550;2023-08-17T12:28:14;100602.69;;;27.93;100.00
54808;BME280;40708;50.364;7.550;2023-08-17T12:30:39;100607.91;;;27.57;100.00
54808;BME280;40708;50.364;7.550;2023-08-17T12:33:05;100601.47;;;27.97;100.00
54808;BME280;40708;50.364;7.550;2023-08-17T12:35:31;100593.25;;;28.11;100.00
54808;BME280;40708;50.364;7.550;2023-08-17T12:37:57;100597.84;;;27.84;100.00
54808;BME280;40708;50.364;7.550;2023-08-17T12:40:23;100594.44;;;27.68;100.00
54808;BME280;40708;50.364;7.550;2023-08-17T12:42:48;100597.06;;;27.43;100.00
54808;BME280;40708;50.364;7.550;2023-08-17T12:45:14;100590.38;;;27.20;100.00
54808;BME280;40708;50.364;7.550;2023-08-17T12:47:40;100593.00;;;27.22;100.00